Time;durP1;ratioP1;P1;durP2;ratioP2;P2;SDS_P1;SDS_P2;PMS_P1;PMS_P2;Temp;Humidity;BMP_temperature;BMP_pressure;BME280_temperature;BME280_humidity;BME280_pressure;Samples;Min_cycle;Max_cycle;Signal;HPM_P1;HPM_P2
2023/08/22 00:01:43;;;;;;;;;;;27.00;99.90;;;;;;5097350;28;20316;-71
2023/08/22 00:04:08;;;;;;;;;;;27.20;99.90;;;;;;5097255;28;19904;-72
2023/08/22 00:06:34;;;;;;;;;;;27.50;99.90;;;;;;5097397;28;19908;-72
2023/08/22 00:08:59;;;;;;;;;;;27.70;99.90;;;;;;5097334;28;19914;-71
2023/08/22 00:11:27;;;;;;;;;;;27.90;99.90;;;;;;5097278;28;19914;-72
2023/08/22 00:13:52;;;;;;;;;;;28.10;99.90;;;;;;5097223;28;19907;-71
2023/08/22 00:16:18;;;;;;;;;;;28.20;99.90;;;;;;5096984;28;19915;-71
2023/08/22 00:18:43;;;;;;;;;;;28.20;99.90;;;;;;5096887;28;19904;-72
2023/08/22 00:21:09;;;;;;;;;;;28.20;99.90;;;;;;5092971;28;19904;-71
2023/08/22 00:23:34;;;;;;;;;;;28.20;99.90;;;;;;5095781;28;19939;-72
2023/08/22 00:26:00;;;;;;;;;;;28.20;99.90;;;;;;5095089;28;19926;-72
2023/08/22 00:28:25;;;;;;;;;;;28.10;99.90;;;;;;5096833;28;19915;-72
2023/08/22 00:30:54;;;;;;;;;;;28.10;99.90;;;;;;5096957;28;19903;-72
2023/08/22 00:33:20;;;;;;;;;;;28.00;99.90;;;;;;5095169;28;20356;-71
2023/08/22 00:35:45;;;;;;;;;;;28.00;99.90;;;;;;5095122;28;20295;-71
2023/08/22 00:38:11;;;;;;;;;;;27.90;99.90;;;;;;5096789;28;19930;-71
2023/08/22 00:40:36;;;;;;;;;;;27.80;99.90;;;;;;5096604;28;19910;-72
2023/08/22 00:43:02;;;;;;;;;;;27.80;99.90;;;;;;5096792;28;20405;-72
2023/08/22 00:45:27;;;;;;;;;;;27.80;99.90;;;;;;5096745;28;19971;-71
2023/08/22 00:47:53;;;;;;;;;;;27.80;99.90;;;;;;5096501;28;19918;-71
2023/08/22 00:50:19;;;;;;;;;;;27.70;99.90;;;;;;5096320;28;20368;-71
2023/08/22 00:52:44;;;;;;;;;;;27.60;99.90;;;;;;5096519;28;19976;-74
2023/08/22 00:55:10;;;;;;;;;;;27.60;99.90;;;;;;5096407;28;19904;-71
2023/08/22 00:57:36;;;;;;;;;;;27.50;99.90;;;;;;5094839;28;19942;-71
2023/08/22 01:00:05;;;;;;;;;;;27.50;99.90;;;;;;5096032;28;19960;-73
2023/08/22 01:02:31;;;;;;;;;;;27.40;99.90;;;;;;5096270;28;20360;-72
2023/08/22 01:04:56;;;;;;;;;;;27.40;99.90;;;;;;5096237;28;19908;-72
2023/08/22 01:07:30;;;;;;;;;;;27.30;99.90;;;;;;5094871;28;19908;-72
2023/08/22 01:10:07;;;;;;;;;;;27.30;99.90;;;;;;5082687;28;19908;-72
2023/08/22 01:12:45;;;;;;;;;;;27.20;99.90;;;;;;5094314;28;19915;-73
2023/08/22 01:15:14;;;;;;;;;;;27.20;99.90;;;;;;5094579;28;19926;-72
2023/08/22 01:17:41;;;;;;;;;;;27.10;99.90;;;;;;5095672;28;19955;-71
2023/08/22 01:20:11;;;;;;;;;;;27.10;99.90;;;;;;5096207;28;19904;-71
2023/08/22 01:22:37;;;;;;;;;;;27.00;99.90;;;;;;5083716;28;19914;-71
2023/08/22 01:25:03;;;;;;;;;;;27.00;99.90;;;;;;5095451;28;19916;-72
2023/08/22 01:27:31;;;;;;;;;;;26.90;99.90;;;;;;5095726;28;19912;-72
2023/08/22 01:30:01;;;;;;;;;;;26.80;99.90;;;;;;5096091;28;19915;-73
2023/08/22 01:32:27;;;;;;;;;;;26.70;99.90;;;;;;5095916;28;19904;-73
2023/08/22 01:34:56;;;;;;;;;;;26.70;99.90;;;;;;5095868;28;19912;-74
2023/08/22 01:37:23;;;;;;;;;;;26.60;99.90;;;;;;5095626;28;19911;-72
2023/08/22 01:39:49;;;;;;;;;;;26.60;99.90;;;;;;5095943;28;19904;-73
2023/08/22 01:42:15;;;;;;;;;;;26.50;99.90;;;;;;5095660;28;19904;-72
2023/08/22 01:44:41;;;;;;;;;;;26.50;99.90;;;;;;5095953;28;19908;-74
2023/08/22 01:47:06;;;;;;;;;;;26.40;99.90;;;;;;5095818;28;19908;-72
2023/08/22 01:49:35;;;;;;;;;;;26.30;99.90;;;;;;5095507;28;19912;-72
2023/08/22 01:52:01;;;;;;;;;;;26.30;99.90;;;;;;5094577;28;20261;-71
2023/08/22 01:54:26;;;;;;;;;;;26.20;99.90;;;;;;5095517;28;19904;-72
2023/08/22 01:56:52;;;;;;;;;;;26.10;99.90;;;;;;5095506;28;19903;-73
2023/08/22 01:59:17;;;;;;;;;;;26.00;99.90;;;;;;5095572;28;19930;-72
2023/08/22 02:01:43;;;;;;;;;;;25.90;99.90;;;;;;5096230;28;19912;-73
2023/08/22 02:04:08;;;;;;;;;;;25.90;99.90;;;;;;5095516;28;19960;-72
2023/08/22 02:06:34;;;;;;;;;;;25.80;99.90;;;;;;5087686;28;19912;-72
2023/08/22 02:08:59;;;;;;;;;;;25.70;99.90;;;;;;5092737;28;19940;-71
2023/08/22 02:11:25;;;;;;;;;;;25.70;99.90;;;;;;5095572;28;19934;-72
2023/08/22 02:13:50;;;;;;;;;;;25.70;99.90;;;;;;5095303;28;19904;-72
2023/08/22 02:16:16;;;;;;;;;;;25.70;99.90;;;;;;5095663;28;19935;-73
2023/08/22 02:18:41;;;;;;;;;;;25.60;99.90;;;;;;5094926;28;19985;-72
2023/08/22 02:21:07;;;;;;;;;;;25.50;99.90;;;;;;5095383;28;19981;-73
2023/08/22 02:23:32;;;;;;;;;;;25.50;99.90;;;;;;5095381;28;19908;-72
2023/08/22 02:25:58;;;;;;;;;;;25.40;99.90;;;;;;5097032;28;19977;-72
2023/08/22 02:28:24;;;;;;;;;;;25.40;99.90;;;;;;5097780;28;19969;-72
2023/08/22 02:30:56;;;;;;;;;;;25.30;99.90;;;;;;5095031;28;19908;-72
2023/08/22 02:33:22;;;;;;;;;;;25.30;99.90;;;;;;5097677;28;19911;-73
2023/08/22 02:35:47;;;;;;;;;;;25.20;99.90;;;;;;5099203;28;19908;-72
2023/08/22 02:38:13;;;;;;;;;;;25.20;99.90;;;;;;5099080;28;19909;-72
2023/08/22 02:40:38;;;;;;;;;;;25.10;99.90;;;;;;5098653;28;19912;-71
2023/08/22 02:43:04;;;;;;;;;;;25.10;99.90;;;;;;5098545;28;19908;-72
2023/08/22 02:45:29;;;;;;;;;;;25.00;99.90;;;;;;5099069;28;19918;-71
2023/08/22 02:47:55;;;;;;;;;;;25.00;99.90;;;;;;5095099;28;19910;-72
2023/08/22 02:50:23;;;;;;;;;;;25.00;99.90;;;;;;5091628;28;20376;-72
2023/08/22 02:52:51;;;;;;;;;;;24.90;99.90;;;;;;5098587;28;19904;-72
2023/08/22 02:55:17;;;;;;;;;;;24.90;99.90;;;;;;5098667;28;19927;-73
2023/08/22 02:57:43;;;;;;;;;;;24.80;99.90;;;;;;5098464;28;20112;-72
2023/08/22 03:00:11;;;;;;;;;;;24.80;99.90;;;;;;5097260;28;19904;-73
2023/08/22 03:02:37;;;;;;;;;;;24.80;99.90;;;;;;5098400;28;19926;-73
2023/08/22 03:05:04;;;;;;;;;;;24.70;99.90;;;;;;5084829;28;20003;-72
2023/08/22 03:07:30;;;;;;;;;;;24.70;99.90;;;;;;5097959;28;19915;-73
2023/08/22 03:09:55;;;;;;;;;;;24.60;99.90;;;;;;5097215;28;19908;-72
2023/08/22 03:12:21;;;;;;;;;;;24.60;99.90;;;;;;5084451;28;20308;-71
2023/08/22 03:14:46;;;;;;;;;;;24.60;99.90;;;;;;5096758;28;20336;-72
2023/08/22 03:17:12;;;;;;;;;;;24.50;99.90;;;;;;5098186;28;19911;-73
2023/08/22 03:19:37;;;;;;;;;;;24.50;99.90;;;;;;5097747;28;19904;-72
2023/08/22 03:22:03;;;;;;;;;;;24.50;99.90;;;;;;5089601;28;19912;-72
2023/08/22 03:24:29;;;;;;;;;;;24.40;99.90;;;;;;5096908;28;20396;-72
2023/08/22 03:26:54;;;;;;;;;;;24.40;99.90;;;;;;5098181;28;19915;-72
2023/08/22 03:29:20;;;;;;;;;;;24.40;99.90;;;;;;5098143;28;19938;-72
2023/08/22 03:31:45;;;;;;;;;;;24.30;99.90;;;;;;5098128;28;19942;-72
2023/08/22 03:34:11;;;;;;;;;;;24.30;99.90;;;;;;5097793;28;19912;-72
2023/08/22 03:36:36;;;;;;;;;;;24.30;99.90;;;;;;5097616;28;19904;-72
2023/08/22 03:39:02;;;;;;;;;;;24.30;99.90;;;;;;5097716;28;20429;-73
2023/08/22 03:41:27;;;;;;;;;;;24.20;99.90;;;;;;5096548;28;20444;-72
2023/08/22 03:43:53;;;;;;;;;;;24.20;99.90;;;;;;5097596;28;19976;-72
2023/08/22 03:46:18;;;;;;;;;;;24.20;99.90;;;;;;5097766;28;20075;-72
2023/08/22 03:48:44;;;;;;;;;;;24.20;99.90;;;;;;5097423;28;19934;-72
2023/08/22 03:51:09;;;;;;;;;;;24.20;99.90;;;;;;5097423;28;19951;-72
2023/08/22 03:53:36;;;;;;;;;;;24.20;99.90;;;;;;5097737;28;19904;-72
2023/08/22 03:56:02;;;;;;;;;;;24.10;99.90;;;;;;5097739;28;20287;-72
2023/08/22 03:58:27;;;;;;;;;;;24.10;99.90;;;;;;5097259;28;19904;-72
2023/08/22 04:01:03;;;;;;;;;;;24.00;99.90;;;;;;5097706;28;19908;-73
2023/08/22 04:03:29;;;;;;;;;;;24.00;99.90;;;;;;5097278;28;19904;-72
2023/08/22 04:05:55;;;;;;;;;;;24.00;99.90;;;;;;5097357;28;20015;-72
2023/08/22 04:08:20;;;;;;;;;;;23.90;99.90;;;;;;5097542;28;19954;-72
2023/08/22 04:10:46;;;;;;;;;;;23.90;99.90;;;;;;5097413;28;19911;-72
2023/08/22 04:13:11;;;;;;;;;;;23.90;99.90;;;;;;5096928;28;19908;-72
2023/08/22 04:15:39;;;;;;;;;;;23.90;99.90;;;;;;5097337;28;19915;-72
2023/08/22 04:18:05;;;;;;;;;;;23.80;99.90;;;;;;5076833;28;20015;-72
2023/08/22 04:20:30;;;;;;;;;;;23.70;99.90;;;;;;5087627;28;19989;-72
2023/08/22 04:22:56;;;;;;;;;;;23.80;99.90;;;;;;5097197;28;19910;-72
2023/08/22 04:25:21;;;;;;;;;;;23.70;99.90;;;;;;5096906;28;20028;-72
2023/08/22 04:27:47;;;;;;;;;;;23.70;99.90;;;;;;5096620;28;19969;-72
2023/08/22 04:30:13;;;;;;;;;;;23.60;99.90;;;;;;5097093;28;19919;-71
2023/08/22 04:32:38;;;;;;;;;;;23.60;99.90;;;;;;5090178;28;19926;-72
2023/08/22 04:35:04;;;;;;;;;;;23.60;99.90;;;;;;5089643;28;19912;-72
2023/08/22 04:37:30;;;;;;;;;;;23.50;99.90;;;;;;5095482;28;19911;-72
2023/08/22 04:39:55;;;;;;;;;;;23.50;99.90;;;;;;5096711;28;20006;-72
2023/08/22 04:42:21;;;;;;;;;;;23.50;99.90;;;;;;5096554;28;20345;-72
2023/08/22 04:44:46;;;;;;;;;;;23.40;99.90;;;;;;5095210;28;19911;-72
2023/08/22 04:47:12;;;;;;;;;;;23.40;99.90;;;;;;5095728;28;20421;-72
2023/08/22 04:49:37;;;;;;;;;;;23.40;99.90;;;;;;5096573;28;20002;-71
2023/08/22 04:52:03;;;;;;;;;;;23.40;99.90;;;;;;5094947;28;19912;-72
2023/08/22 04:54:29;;;;;;;;;;;23.30;99.90;;;;;;5096510;28;19904;-72
2023/08/22 04:56:54;;;;;;;;;;;23.30;99.90;;;;;;5095072;28;19904;-72
2023/08/22 04:59:20;;;;;;;;;;;23.30;99.90;;;;;;5096264;28;19998;-72
2023/08/22 05:01:45;;;;;;;;;;;23.30;99.90;;;;;;5096460;28;19954;-73
2023/08/22 05:04:11;;;;;;;;;;;23.20;99.90;;;;;;5096088;28;20023;-72
2023/08/22 05:06:36;;;;;;;;;;;23.20;99.90;;;;;;5096234;28;19912;-72
2023/08/22 05:09:03;;;;;;;;;;;23.20;99.90;;;;;;5095995;28;19915;-72
2023/08/22 05:11:28;;;;;;;;;;;23.20;99.90;;;;;;5095372;28;19910;-72
2023/08/22 05:13:54;;;;;;;;;;;23.20;99.90;;;;;;5096224;28;20002;-71
2023/08/22 05:16:19;;;;;;;;;;;23.10;99.90;;;;;;5087664;28;20272;-71
2023/08/22 05:18:45;;;;;;;;;;;23.10;99.90;;;;;;5093774;28;20261;-71
2023/08/22 05:21:11;;;;;;;;;;;23.10;99.90;;;;;;5088956;28;20451;-71
2023/08/22 05:23:36;;;;;;;;;;;23.10;99.90;;;;;;5096164;28;19951;-71
2023/08/22 05:26:02;;;;;;;;;;;23.10;99.90;;;;;;5095924;28;19920;-71
2023/08/22 05:28:28;;;;;;;;;;;23.10;99.90;;;;;;5095925;28;19936;-71
2023/08/22 05:30:53;;;;;;;;;;;23.10;99.90;;;;;;5095899;28;19908;-71
2023/08/22 05:33:19;;;;;;;;;;;23.20;99.90;;;;;;5095663;28;19931;-71
2023/08/22 05:35:45;;;;;;;;;;;23.20;99.90;;;;;;5094563;28;19931;-71
2023/08/22 05:38:10;;;;;;;;;;;23.20;99.90;;;;;;5095729;28;19904;-71
2023/08/22 05:40:36;;;;;;;;;;;23.20;99.90;;;;;;5095925;28;19991;-72
2023/08/22 05:43:01;;;;;;;;;;;23.20;99.90;;;;;;5082350;28;19904;-70
2023/08/22 05:45:27;;;;;;;;;;;23.20;99.90;;;;;;5095529;28;19936;-71
2023/08/22 05:47:52;;;;;;;;;;;23.20;99.90;;;;;;5095609;28;19908;-71
2023/08/22 05:50:18;;;;;;;;;;;23.20;99.90;;;;;;5095710;28;19909;-71
2023/08/22 05:52:43;;;;;;;;;;;23.20;99.90;;;;;;5094264;28;19930;-70
2023/08/22 05:55:09;;;;;;;;;;;23.20;99.90;;;;;;5095555;28;19911;-71
2023/08/22 05:57:34;;;;;;;;;;;23.10;99.90;;;;;;5094011;28;19912;-71
2023/08/22 06:00:00;;;;;;;;;;;23.20;99.90;;;;;;5098693;28;19908;-71
2023/08/22 06:02:25;;;;;;;;;;;23.20;99.90;;;;;;5099786;28;20260;-71
2023/08/22 06:04:51;;;;;;;;;;;23.40;99.90;;;;;;5099481;28;19904;-71
2023/08/22 06:07:17;;;;;;;;;;;23.40;99.90;;;;;;5099859;28;19908;-71
2023/08/22 06:09:42;;;;;;;;;;;23.40;99.90;;;;;;5098581;28;19912;-71
2023/08/22 06:12:08;;;;;;;;;;;23.40;99.90;;;;;;5099728;28;19908;-71
2023/08/22 06:14:33;;;;;;;;;;;23.50;99.90;;;;;;5099560;28;20021;-71
2023/08/22 06:16:59;;;;;;;;;;;23.50;99.90;;;;;;5099513;28;19904;-71
2023/08/22 06:19:25;;;;;;;;;;;23.60;99.90;;;;;;5099476;28;19969;-71
2023/08/22 06:21:50;;;;;;;;;;;23.60;99.90;;;;;;5093640;28;20016;-71
2023/08/22 06:24:16;;;;;;;;;;;23.60;99.90;;;;;;5099268;28;20300;-71
2023/08/22 06:26:41;;;;;;;;;;;23.60;99.90;;;;;;5089553;28;20319;-71
2023/08/22 06:29:08;;;;;;;;;;;23.60;99.90;;;;;;5095577;28;20333;-71
2023/08/22 06:31:34;;;;;;;;;;;23.70;99.90;;;;;;5099172;28;19934;-71
2023/08/22 06:33:59;;;;;;;;;;;23.80;99.90;;;;;;5091874;28;20295;-71
2023/08/22 06:36:25;;;;;;;;;;;23.90;99.90;;;;;;5098948;28;19943;-71
2023/08/22 06:38:51;;;;;;;;;;;23.90;99.90;;;;;;5099170;28;19980;-71
2023/08/22 06:41:17;;;;;;;;;;;23.90;99.90;;;;;;5098746;28;20407;-71
2023/08/22 06:43:42;;;;;;;;;;;23.90;99.90;;;;;;5098857;28;19904;-71
2023/08/22 06:46:08;;;;;;;;;;;23.90;99.90;;;;;;5098854;28;19915;-71
2023/08/22 06:48:33;;;;;;;;;;;23.90;99.90;;;;;;5098790;28;20364;-71
2023/08/22 06:50:59;;;;;;;;;;;24.10;99.90;;;;;;5098785;28;19915;-72
2023/08/22 06:53:24;;;;;;;;;;;24.00;99.90;;;;;;5098747;28;20372;-75
2023/08/22 06:55:50;;;;;;;;;;;24.00;99.90;;;;;;5098946;28;20360;-74
2023/08/22 06:58:16;;;;;;;;;;;24.10;99.90;;;;;;5098579;28;19961;-73
2023/08/22 07:00:41;;;;;;;;;;;24.20;99.90;;;;;;5097326;28;19951;-72
2023/08/22 07:03:07;;;;;;;;;;;24.20;99.90;;;;;;5098206;28;19908;-72
2023/08/22 07:05:36;;;;;;;;;;;24.30;99.90;;;;;;5098633;28;19912;-74
2023/08/22 07:08:02;;;;;;;;;;;24.30;99.90;;;;;;5097186;28;19911;-73
2023/08/22 07:10:27;;;;;;;;;;;24.40;99.90;;;;;;5097619;28;20348;-73
2023/08/22 07:12:53;;;;;;;;;;;24.50;99.90;;;;;;5098515;28;19940;-72
2023/08/22 07:15:19;;;;;;;;;;;24.60;99.90;;;;;;5096379;28;19999;-72
2023/08/22 07:17:44;;;;;;;;;;;24.60;99.90;;;;;;5098242;28;20427;-73
2023/08/22 07:20:10;;;;;;;;;;;24.70;99.90;;;;;;5098363;28;20436;-73
2023/08/22 07:22:36;;;;;;;;;;;24.80;99.90;;;;;;5093124;28;19929;-74
2023/08/22 07:25:01;;;;;;;;;;;24.80;99.90;;;;;;5098433;28;19912;-73
2023/08/22 07:27:27;;;;;;;;;;;24.80;99.90;;;;;;5097894;28;19939;-72
2023/08/22 07:29:52;;;;;;;;;;;24.80;99.90;;;;;;5096909;28;19908;-74
2023/08/22 07:32:21;;;;;;;;;;;24.70;99.90;;;;;;5097791;28;19915;-74
2023/08/22 07:34:47;;;;;;;;;;;24.70;99.90;;;;;;5098237;28;20391;-74
2023/08/22 07:37:13;;;;;;;;;;;24.60;99.90;;;;;;5098022;28;19927;-72
2023/08/22 07:39:39;;;;;;;;;;;24.80;99.90;;;;;;5098144;28;21067;-73
2023/08/22 07:42:04;;;;;;;;;;;25.00;99.90;;;;;;5097795;28;19998;-73
2023/08/22 07:44:30;;;;;;;;;;;25.10;99.90;;;;;;5098159;28;19904;-73
2023/08/22 07:46:55;;;;;;;;;;;25.40;99.90;;;;;;5097904;28;19908;-73
2023/08/22 07:49:21;;;;;;;;;;;25.60;99.90;;;;;;5083666;28;19926;-73
2023/08/22 07:51:47;;;;;;;;;;;25.80;99.90;;;;;;5097836;28;19957;-73
2023/08/22 07:54:12;;;;;;;;;;;26.00;99.90;;;;;;5097681;28;20395;-73
2023/08/22 07:56:38;;;;;;;;;;;26.00;99.90;;;;;;5097224;28;19949;-73
2023/08/22 07:59:03;;;;;;;;;;;26.10;99.90;;;;;;5097311;28;19985;-72
2023/08/22 08:01:29;;;;;;;;;;;26.20;99.90;;;;;;5096433;28;19975;-74
2023/08/22 08:03:55;;;;;;;;;;;26.20;99.90;;;;;;5097347;28;20311;-73
2023/08/22 08:06:20;;;;;;;;;;;26.20;99.90;;;;;;5096066;28;20014;-73
2023/08/22 08:08:46;;;;;;;;;;;26.10;99.90;;;;;;5097303;28;19944;-73
2023/08/22 08:11:12;;;;;;;;;;;26.20;99.90;;;;;;5097327;28;19914;-73
2023/08/22 08:13:38;;;;;;;;;;;26.20;99.90;;;;;;5097067;28;19965;-73
2023/08/22 08:16:03;;;;;;;;;;;26.20;99.90;;;;;;5084860;28;19908;-73
2023/08/22 08:18:29;;;;;;;;;;;26.20;99.90;;;;;;5096988;28;19912;-75
2023/08/22 08:20:54;;;;;;;;;;;26.30;99.90;;;;;;5095780;28;19908;-73
2023/08/22 08:23:20;;;;;;;;;;;26.30;99.90;;;;;;5097375;28;19961;-74
2023/08/22 08:25:45;;;;;;;;;;;26.40;99.90;;;;;;5096673;28;19916;-73
2023/08/22 08:28:11;;;;;;;;;;;26.30;99.90;;;;;;5097209;28;19972;-73
2023/08/22 08:30:36;;;;;;;;;;;26.50;99.90;;;;;;5096614;28;20253;-73
2023/08/22 08:33:03;;;;;;;;;;;26.90;99.90;;;;;;5096720;28;19908;-73
2023/08/22 08:35:28;;;;;;;;;;;27.10;99.90;;;;;;5095481;28;19904;-73
2023/08/22 08:37:54;;;;;;;;;;;27.10;99.90;;;;;;5096997;28;20619;-73
2023/08/22 08:40:19;;;;;;;;;;;27.10;99.90;;;;;;5096711;28;20295;-73
2023/08/22 08:42:45;;;;;;;;;;;27.20;99.90;;;;;;5096871;28;19957;-73
2023/08/22 08:45:12;;;;;;;;;;;27.30;99.90;;;;;;5096580;28;19911;-73
2023/08/22 08:47:38;;;;;;;;;;;27.40;99.90;;;;;;5095107;28;19999;-73
2023/08/22 08:50:04;;;;;;;;;;;27.50;99.90;;;;;;5096715;28;19908;-73
2023/08/22 08:52:31;;;;;;;;;;;27.60;99.90;;;;;;5096520;28;19908;-72
2023/08/22 08:54:57;;;;;;;;;;;27.90;99.90;;;;;;5096641;28;19911;-73
2023/08/22 08:57:22;;;;;;;;;;;28.00;99.90;;;;;;5082906;28;19904;-72
2023/08/22 08:59:48;;;;;;;;;;;28.10;99.90;;;;;;5095121;28;19923;-73
2023/08/22 09:02:17;;;;;;;;;;;28.10;99.90;;;;;;5096437;28;19912;-76
2023/08/22 09:04:42;;;;;;;;;;;28.30;99.90;;;;;;5096826;28;20042;-75
2023/08/22 09:07:08;;;;;;;;;;;28.50;99.90;;;;;;5096448;28;21074;-75
2023/08/22 09:09:35;;;;;;;;;;;28.60;99.90;;;;;;5095053;28;19912;-75
2023/08/22 09:12:04;;;;;;;;;;;28.60;99.90;;;;;;5095055;28;20368;-75
2023/08/22 09:14:29;;;;;;;;;;;28.60;99.90;;;;;;5096079;28;19908;-76
2023/08/22 09:16:58;;;;;;;;;;;28.50;99.90;;;;;;5094609;28;19904;-75
2023/08/22 09:19:24;;;;;;;;;;;28.60;99.90;;;;;;5095943;28;19912;-76
2023/08/22 09:21:59;;;;;;;;;;;28.60;99.90;;;;;;5093731;28;19969;-74
2023/08/22 09:24:25;;;;;;;;;;;28.70;99.90;;;;;;5096002;28;19912;-74
2023/08/22 09:26:51;;;;;;;;;;;28.70;99.90;;;;;;5095919;28;20374;-75
2023/08/22 09:29:24;;;;;;;;;;;28.70;99.90;;;;;;5096131;28;19943;-74
2023/08/22 09:31:50;;;;;;;;;;;28.80;99.90;;;;;;5094908;28;19912;-76
2023/08/22 09:34:15;;;;;;;;;;;28.90;99.90;;;;;;5078966;28;19911;-76
2023/08/22 09:36:45;;;;;;;;;;;29.00;99.90;;;;;;5085413;28;19908;-76
2023/08/22 09:39:16;;;;;;;;;;;29.00;99.90;;;;;;5093903;28;19904;-73
2023/08/22 09:41:41;;;;;;;;;;;29.00;99.90;;;;;;5093243;28;19908;-75
2023/08/22 09:44:08;;;;;;;;;;;29.10;99.90;;;;;;5089364;28;20287;-74
2023/08/22 09:46:35;;;;;;;;;;;29.20;99.90;;;;;;5091020;28;19955;-76
2023/08/22 09:49:01;;;;;;;;;;;29.40;99.90;;;;;;5094112;28;19967;-75
2023/08/22 09:51:27;;;;;;;;;;;29.30;99.90;;;;;;5088765;28;19924;-76
2023/08/22 09:53:59;;;;;;;;;;;29.60;99.90;;;;;;5089043;28;20266;-76
2023/08/22 09:56:25;;;;;;;;;;;29.80;99.90;;;;;;5088380;28;20012;-75
2023/08/22 09:58:51;;;;;;;;;;;29.90;99.90;;;;;;5088150;28;19944;-76
2023/08/22 10:01:18;;;;;;;;;;;30.00;99.90;;;;;;5086689;28;20426;-76
2023/08/22 10:03:45;;;;;;;;;;;30.10;99.90;;;;;;5084565;28;19904;-75
2023/08/22 10:06:12;;;;;;;;;;;30.10;99.90;;;;;;5089960;28;19912;-75
2023/08/22 10:08:37;;;;;;;;;;;30.20;99.90;;;;;;5094734;28;20655;-76
2023/08/22 10:11:04;;;;;;;;;;;30.20;99.90;;;;;;5088987;28;19909;-76
2023/08/22 10:13:29;;;;;;;;;;;30.40;99.90;;;;;;5086823;28;20284;-75
2023/08/22 10:15:56;;;;;;;;;;;30.60;99.90;;;;;;5091038;28;19907;-75
2023/08/22 10:18:23;;;;;;;;;;;30.70;99.90;;;;;;5089133;28;19953;-74
2023/08/22 10:20:48;;;;;;;;;;;30.70;99.90;;;;;;5090769;28;20288;-74
2023/08/22 10:23:15;;;;;;;;;;;30.70;99.90;;;;;;5093793;28;19911;-72
2023/08/22 10:25:49;;;;;;;;;;;30.80;99.90;;;;;;5095312;28;19912;-73
2023/08/22 10:28:15;;;;;;;;;;;30.80;99.90;;;;;;5095093;28;19904;-73
2023/08/22 10:31:00;;;;;;;;;;;30.80;99.90;;;;;;5082102;28;19999;-74
2023/08/22 10:33:26;;;;;;;;;;;30.90;99.90;;;;;;5093705;28;19904;-75
2023/08/22 10:36:14;;;;;;;;;;;30.90;99.90;;;;;;5094131;28;20000;-73
2023/08/22 10:38:53;;;;;;;;;;;31.10;99.90;;;;;;5095421;28;19904;-73
2023/08/22 10:41:43;;;;;;;;;;;31.10;99.90;;;;;;5095297;28;20478;-74
2023/08/22 10:44:16;;;;;;;;;;;31.30;99.90;;;;;;5094128;28;20410;-74
2023/08/22 10:46:59;;;;;;;;;;;31.30;99.90;;;;;;5098129;28;19912;-74
2023/08/22 10:49:27;;;;;;;;;;;31.40;99.90;;;;;;5098774;28;19904;-74
2023/08/22 10:52:19;;;;;;;;;;;31.40;99.90;;;;;;5099116;28;20322;-75
2023/08/22 10:54:57;;;;;;;;;;;31.50;99.90;;;;;;5073742;28;19912;-75
2023/08/22 10:57:23;;;;;;;;;;;31.50;99.90;;;;;;5097483;28;20273;-74
2023/08/22 11:00:00;;;;;;;;;;;31.60;99.90;;;;;;5098739;28;19958;-74
2023/08/22 11:02:30;;;;;;;;;;;31.70;99.90;;;;;;5098064;28;19910;-74
2023/08/22 11:05:00;;;;;;;;;;;31.80;99.90;;;;;;5097515;28;19911;-73
2023/08/22 11:07:26;;;;;;;;;;;31.80;99.90;;;;;;5098522;28;19908;-74
2023/08/22 11:09:53;;;;;;;;;;;31.80;99.90;;;;;;5084943;28;19957;-73
2023/08/22 11:12:19;;;;;;;;;;;31.80;99.90;;;;;;5098225;28;19911;-74
2023/08/22 11:14:48;;;;;;;;;;;31.90;99.90;;;;;;5098548;28;20019;-74
2023/08/22 11:17:14;;;;;;;;;;;31.90;99.90;;;;;;5098314;28;19939;-72
2023/08/22 11:19:40;;;;;;;;;;;32.00;99.90;;;;;;5098513;28;20269;-73
2023/08/22 11:22:06;;;;;;;;;;;32.20;99.90;;;;;;5097892;28;19904;-72
2023/08/22 11:24:31;;;;;;;;;;;32.30;99.90;;;;;;5098152;28;20372;-73
2023/08/22 11:27:00;;;;;;;;;;;32.40;99.90;;;;;;5098038;28;19915;-74
2023/08/22 11:29:26;;;;;;;;;;;32.40;99.90;;;;;;5098090;28;19904;-73
2023/08/22 11:31:51;;;;;;;;;;;32.60;99.90;;;;;;5097824;28;19904;-74
2023/08/22 11:34:20;;;;;;;;;;;32.70;99.90;;;;;;5089521;28;19915;-74
2023/08/22 11:36:45;;;;;;;;;;;32.80;99.90;;;;;;5093360;28;19973;-73
2023/08/22 11:39:11;;;;;;;;;;;32.80;99.90;;;;;;5097990;28;19904;-74
2023/08/22 11:41:37;;;;;;;;;;;32.90;99.90;;;;;;5096360;28;19904;-75
2023/08/22 11:44:02;;;;;;;;;;;33.00;99.90;;;;;;5095600;28;19908;-73
2023/08/22 11:46:28;;;;;;;;;;;33.00;99.90;;;;;;5095200;28;20086;-74
2023/08/22 11:48:53;;;;;;;;;;;33.00;99.90;;;;;;5097763;28;19912;-74
2023/08/22 11:51:20;;;;;;;;;;;33.00;99.90;;;;;;5096476;28;19904;-74
2023/08/22 11:53:46;;;;;;;;;;;33.10;99.90;;;;;;5097625;28;19951;-75
2023/08/22 11:56:12;;;;;;;;;;;33.20;99.90;;;;;;5096993;28;19911;-74
2023/08/22 11:58:49;;;;;;;;;;;33.20;99.90;;;;;;5097569;28;19904;-74
2023/08/22 12:01:15;;;;;;;;;;;33.30;99.90;;;;;;5097413;28;19914;-75
2023/08/22 12:03:43;;;;;;;;;;;33.40;99.90;;;;;;5097471;28;19908;-75
2023/08/22 12:06:12;;;;;;;;;;;33.50;99.90;;;;;;5095835;28;19912;-74
2023/08/22 12:08:38;;;;;;;;;;;33.50;99.90;;;;;;5096252;28;19950;-73
2023/08/22 12:11:04;;;;;;;;;;;33.50;99.90;;;;;;5097271;28;19912;-74
2023/08/22 12:13:29;;;;;;;;;;;33.50;99.90;;;;;;5097326;28;19904;-73
2023/08/22 12:15:55;;;;;;;;;;;33.50;99.90;;;;;;5095929;28;19911;-72
2023/08/22 12:18:28;;;;;;;;;;;33.50;99.90;;;;;;5089738;28;19950;-75
2023/08/22 12:20:54;;;;;;;;;;;33.70;99.90;;;;;;5090998;28;19943;-74
2023/08/22 12:23:19;;;;;;;;;;;33.60;99.90;;;;;;5093854;28;19915;-74
2023/08/22 12:25:44;;;;;;;;;;;33.60;99.90;;;;;;5096753;28;19919;-74
2023/08/22 12:28:10;;;;;;;;;;;33.60;99.90;;;;;;5096713;28;19943;-73
2023/08/22 12:30:37;;;;;;;;;;;33.70;99.90;;;;;;5094596;28;19958;-74
2023/08/22 12:33:03;;;;;;;;;;;33.80;99.90;;;;;;5096870;28;19904;-73
2023/08/22 12:35:32;;;;;;;;;;;34.00;99.90;;;;;;5090974;28;19908;-74
2023/08/22 12:37:58;;;;;;;;;;;34.10;99.90;;;;;;5085582;28;19908;-74
2023/08/22 12:40:23;;;;;;;;;;;34.10;99.90;;;;;;5096882;28;20372;-74
2023/08/22 12:42:49;;;;;;;;;;;34.30;99.90;;;;;;5095036;28;20569;-72
2023/08/22 12:45:15;;;;;;;;;;;34.40;99.30;;;;;;5096801;28;19912;-72
2023/08/22 12:47:43;;;;;;;;;;;34.50;98.60;;;;;;5096157;28;19961;-73
2023/08/22 12:50:10;;;;;;;;;;;34.50;97.70;;;;;;5082271;28;19905;-73
2023/08/22 12:52:36;;;;;;;;;;;34.50;97.90;;;;;;5083880;28;20000;-74
2023/08/22 12:55:02;;;;;;;;;;;34.50;98.00;;;;;;5083692;28;19904;-74
2023/08/22 12:57:28;;;;;;;;;;;34.50;98.10;;;;;;5075617;28;19916;-73
2023/08/22 12:59:53;;;;;;;;;;;34.60;98.10;;;;;;5085308;28;19912;-73
2023/08/22 13:02:19;;;;;;;;;;;34.70;98.80;;;;;;5080421;28;19904;-73
2023/08/22 13:04:45;;;;;;;;;;;34.80;97.90;;;;;;5089983;28;19908;-73
2023/08/22 13:07:10;;;;;;;;;;;35.00;98.20;;;;;;5075713;28;19962;-72
2023/08/22 13:09:36;;;;;;;;;;;35.00;97.90;;;;;;5088748;28;19911;-73
2023/08/22 13:12:02;;;;;;;;;;;35.10;98.00;;;;;;5083158;28;20457;-74
2023/08/22 13:14:27;;;;;;;;;;;35.20;97.20;;;;;;5081444;28;19904;-72
2023/08/22 13:16:54;;;;;;;;;;;35.30;96.50;;;;;;5076665;28;19923;-72
2023/08/22 13:19:20;;;;;;;;;;;35.20;95.70;;;;;;5080857;28;19908;-73
2023/08/22 13:21:45;;;;;;;;;;;35.40;96.70;;;;;;5081622;28;19911;-73
2023/08/22 13:24:11;;;;;;;;;;;35.60;96.30;;;;;;5084622;28;19965;-72
2023/08/22 13:26:38;;;;;;;;;;;35.70;95.40;;;;;;5093551;28;19920;-72
2023/08/22 13:29:03;;;;;;;;;;;35.80;94.30;;;;;;5092979;28;19923;-74
2023/08/22 13:31:29;;;;;;;;;;;35.80;95.40;;;;;;5092420;28;19907;-73
2023/08/22 13:33:54;;;;;;;;;;;35.80;94.10;;;;;;5094330;28;19904;-73
2023/08/22 13:36:20;;;;;;;;;;;35.90;95.10;;;;;;5090949;28;19910;-74
2023/08/22 13:38:45;;;;;;;;;;;35.80;94.90;;;;;;5089898;28;19953;-71
2023/08/22 13:41:11;;;;;;;;;;;35.80;94.20;;;;;;5089683;28;19975;-72
2023/08/22 13:43:38;;;;;;;;;;;35.80;93.90;;;;;;5087791;28;20333;-72
2023/08/22 13:46:05;;;;;;;;;;;35.80;93.40;;;;;;5092812;28;19916;-73
2023/08/22 13:48:31;;;;;;;;;;;36.00;94.50;;;;;;5088100;28;19911;-72
2023/08/22 13:50:56;;;;;;;;;;;36.20;93.40;;;;;;5091493;28;20551;-73
2023/08/22 13:53:22;;;;;;;;;;;36.40;92.70;;;;;;5091314;28;19994;-71
2023/08/22 13:55:48;;;;;;;;;;;36.60;92.30;;;;;;5090259;28;19904;-73
2023/08/22 13:58:13;;;;;;;;;;;36.60;92.20;;;;;;5087890;28;19915;-73
2023/08/22 14:00:39;;;;;;;;;;;36.80;92.60;;;;;;5092855;28;20296;-72
2023/08/22 14:03:04;;;;;;;;;;;37.10;91.60;;;;;;5086824;28;20376;-73
2023/08/22 14:05:30;;;;;;;;;;;37.30;89.00;;;;;;5092258;28;20283;-72
2023/08/22 14:07:55;;;;;;;;;;;37.40;89.90;;;;;;5088240;28;19983;-73
2023/08/22 14:10:23;;;;;;;;;;;37.50;90.30;;;;;;5093674;28;19904;-72
2023/08/22 14:12:52;;;;;;;;;;;37.60;88.40;;;;;;5092750;28;19904;-73